Погода Русенкана 2 недели

Могилёвская область, Белоруссия

23 мая-05 июня
  • 23мая
    Сегодня
    +11°
    +24°
    Пасмурно, дожди с грозами
    ВремяПогодаТемператураВлажностьДавлениеВетер, м/сВероятность осадков
    00:00Ясно и безоблачно+15°C91 %748 мм3.5 м/с2 %
    03:00Практически безоблачно+14°C95 %749 мм3.2 м/с2 %
    06:00Ясно и безоблачно+14°C95 %749 мм4.1 м/с2 %
    09:00Ясно и безоблачно+18°C74 %750 мм4.1 м/с2 %
    12:00Практически безоблачно+22°C60 %751 мм4.8 м/с3 %
    15:00Пасмурно, дожди с грозами+23°C53 %751 мм5.0 м/с34 %
    18:00Небольшая облачность+22°C55 %751 мм4.9 м/с48 %
    21:00Практически безоблачно+18°C57 %751 мм4.5 м/с2 %
  • 24мая
    Пятница
    +10°
    +22°
    Ясно и безоблачно
    ВремяПогодаТемператураВлажностьДавлениеВетер, м/сВероятность осадков
    00:00Ясно и безоблачно+16°C54 %753 мм5.4 м/с2 %
    03:00Ясно и безоблачно+13°C59 %753 мм4.9 м/с2 %
    06:00Ясно и безоблачно+12°C61 %754 мм4.7 м/с1 %
    09:00Ясно и безоблачно+15°C52 %755 мм4.7 м/с2 %
    12:00Ясно и безоблачно+20°C45 %755 мм4.8 м/с2 %
    15:00Ясно и безоблачно+22°C40 %754 мм4.7 м/с2 %
    18:00Ясно и безоблачно+21°C41 %754 мм4.4 м/с2 %
    21:00Ясно и безоблачно+16°C55 %754 мм3.4 м/с2 %
  • 25мая
    Суббота
    +9°
    +23°
    Ясно и безоблачно
    ВремяПогодаТемператураВлажностьДавлениеВетер, м/сВероятность осадков
    00:00Ясно и безоблачно+13°C66 %754 мм3.5 м/с2 %
    03:00Ясно и безоблачно+12°C70 %754 мм3.5 м/с2 %
    06:00Ясно и безоблачно+11°C68 %754 мм3.5 м/с2 %
    09:00Ясно и безоблачно+17°C51 %754 мм3.6 м/с2 %
    12:00Ясно и безоблачно+22°C42 %754 мм4.1 м/с2 %
    15:00Ясно и безоблачно+23°C36 %753 мм4.3 м/с2 %
    18:00Ясно и безоблачно+22°C37 %752 мм3.1 м/с3 %
    21:00Ясно и безоблачно+16°C57 %752 мм2.3 м/с2 %
  • 26мая
    Воскресенье
    +10°
    +23°
    Облачно с прояснениями
    ВремяПогодаТемператураВлажностьДавлениеВетер, м/сВероятность осадков
    00:00Ясно и безоблачно+12°C71 %752 мм2.6 м/с2 %
    03:00Ясно и безоблачно+11°C76 %751 мм2.3 м/с2 %
    06:00Ясно и безоблачно+11°C81 %751 мм1.9 м/с2 %
    09:00Ясно и безоблачно+18°C56 %752 мм1.9 м/с2 %
    12:00Облачно с прояснениями+22°C34 %752 мм2.3 м/с2 %
    15:00Облачно с прояснениями+23°C34 %751 мм2.2 м/с2 %
    18:00Ясно и безоблачно+23°C35 %751 мм1.4 м/с2 %
    21:00Ясно и безоблачно+17°C62 %751 мм1.5 м/с2 %
  • 27мая
    Понедельник
    +13°
    +25°
    Практически безоблачно
    ВремяПогодаТемператураВлажностьДавлениеВетер, м/сВероятность осадков
    00:00Ясно и безоблачно+14°C68 %751 мм2.2 м/с2 %
    03:00Облачно с прояснениями+11°C81 %751 мм2.3 м/с2 %
    06:00Ясно и безоблачно+12°C73 %752 мм2.4 м/с2 %
    09:00Ясно и безоблачно+20°C55 %752 мм2.0 м/с2 %
    12:00Практически безоблачно+24°C36 %752 мм2.0 м/с12 %
    15:00Практически безоблачно+25°C38 %752 мм2.9 м/с17 %
    18:00Ясно и безоблачно+24°C38 %751 мм2.0 м/с25 %
    21:00Ясно и безоблачно+19°C61 %751 мм1.2 м/с9 %
Мы используем cookies
Соглашаюсь